sensor_id;sensor_type;location;lat;lon;timestamp;pressure;altitude;pressure_sealevel;temperature;humidity
39699;BME280;25372;50.582;12.250;2023-03-01T00:01:07;101236.56;;;-5.52;100.00
39699;BME280;25372;50.582;12.250;2023-03-01T00:11:31;101235.78;;;-5.54;100.00
39699;BME280;25372;50.582;12.250;2023-03-01T00:21:52;101223.47;;;-5.46;100.00
39699;BME280;25372;50.582;12.250;2023-03-01T00:32:14;101225.00;;;-5.69;100.00
39699;BME280;25372;50.582;12.250;2023-03-01T00:42:35;101214.88;;;-5.75;100.00
39699;BME280;25372;50.582;12.250;2023-03-01T00:52:57;101207.09;;;-6.03;100.00
39699;BME280;25372;50.582;12.250;2023-03-01T01:03:18;101202.59;;;-5.68;100.00
39699;BME280;25372;50.582;12.250;2023-03-01T01:13:40;101197.69;;;-6.36;100.00
39699;BME280;25372;50.582;12.250;2023-03-01T01:24:03;101207.53;;;-6.19;100.00
39699;BME280;25372;50.582;12.250;2023-03-01T01:34:26;101189.38;;;-6.16;100.00
39699;BME280;25372;50.582;12.250;2023-03-01T01:44:47;101185.59;;;-6.35;100.00
39699;BME280;25372;50.582;12.250;2023-03-01T01:55:12;101188.00;;;-6.27;100.00
39699;BME280;25372;50.582;12.250;2023-03-01T02:05:39;101182.00;;;-5.98;100.00
39699;BME280;25372;50.582;12.250;2023-03-01T02:16:13;101175.53;;;-6.13;100.00
39699;BME280;25372;50.582;12.250;2023-03-01T02:26:41;101163.09;;;-6.28;100.00
39699;BME280;25372;50.582;12.250;2023-03-01T02:37:11;101142.16;;;-6.49;100.00
39699;BME280;25372;50.582;12.250;2023-03-01T02:47:34;101144.25;;;-6.63;100.00
39699;BME280;25372;50.582;12.250;2023-03-01T02:57:56;101140.13;;;-6.69;100.00
39699;BME280;25372;50.582;12.250;2023-03-01T03:08:18;101126.66;;;-6.80;100.00
39699;BME280;25372;50.582;12.250;2023-03-01T03:18:44;101132.78;;;-6.85;100.00
39699;BME280;25372;50.582;12.250;2023-03-01T03:29:05;101122.75;;;-6.95;100.00
39699;BME280;25372;50.582;12.250;2023-03-01T03:39:27;101122.91;;;-6.69;100.00
39699;BME280;25372;50.582;12.250;2023-03-01T03:49:48;101115.03;;;-6.64;100.00
39699;BME280;25372;50.582;12.250;2023-03-01T04:00:11;101113.53;;;-6.71;100.00
39699;BME280;25372;50.582;12.250;2023-03-01T04:10:35;101124.50;;;-6.64;100.00
39699;BME280;25372;50.582;12.250;2023-03-01T04:20:57;101129.53;;;-6.91;100.00
39699;BME280;25372;50.582;12.250;2023-03-01T04:31:19;101111.28;;;-7.18;100.00
39699;BME280;25372;50.582;12.250;2023-03-01T04:41:42;101119.53;;;-7.38;100.00
39699;BME280;25372;50.582;12.250;2023-03-01T04:52:04;101104.75;;;-6.97;100.00
39699;BME280;25372;50.582;12.250;2023-03-01T05:02:26;101117.38;;;-7.21;100.00
39699;BME280;25372;50.582;12.250;2023-03-01T05:12:47;101125.94;;;-7.20;100.00
39699;BME280;25372;50.582;12.250;2023-03-01T05:23:09;101106.94;;;-7.14;100.00
39699;BME280;25372;50.582;12.250;2023-03-01T05:33:29;101105.53;;;-7.28;100.00
39699;BME280;25372;50.582;12.250;2023-03-01T05:43:51;101099.44;;;-7.25;100.00
39699;BME280;25372;50.582;12.250;2023-03-01T05:54:12;101103.25;;;-7.06;100.00
39699;BME280;25372;50.582;12.250;2023-03-01T06:04:34;101105.69;;;-6.99;100.00
39699;BME280;25372;50.582;12.250;2023-03-01T06:14:54;101116.78;;;-6.97;100.00
39699;BME280;25372;50.582;12.250;2023-03-01T06:25:18;101114.72;;;-7.18;100.00
39699;BME280;25372;50.582;12.250;2023-03-01T06:35:39;101120.88;;;-7.23;100.00
39699;BME280;25372;50.582;12.250;2023-03-01T06:46:04;101129.59;;;-6.61;100.00
39699;BME280;25372;50.582;12.250;2023-03-01T06:56:26;101128.75;;;-6.32;100.00
39699;BME280;25372;50.582;12.250;2023-03-01T07:06:48;101115.56;;;-5.93;100.00
39699;BME280;25372;50.582;12.250;2023-03-01T07:17:14;101110.91;;;-5.82;100.00
39699;BME280;25372;50.582;12.250;2023-03-01T07:27:36;101104.91;;;-5.27;100.00
39699;BME280;25372;50.582;12.250;2023-03-01T07:37:57;101097.09;;;-5.26;100.00
39699;BME280;25372;50.582;12.250;2023-03-01T07:48:19;101084.16;;;-5.00;100.00
39699;BME280;25372;50.582;12.250;2023-03-01T07:58:42;101083.34;;;-4.30;100.00
39699;BME280;25372;50.582;12.250;2023-03-01T08:09:04;101070.28;;;-4.03;100.00
39699;BME280;25372;50.582;12.250;2023-03-01T08:19:24;101042.81;;;-3.85;100.00
39699;BME280;25372;50.582;12.250;2023-03-01T08:29:48;101050.00;;;-3.49;100.00
39699;BME280;25372;50.582;12.250;2023-03-01T08:40:10;101048.19;;;-3.47;100.00
39699;BME280;25372;50.582;12.250;2023-03-01T08:50:34;101042.56;;;-3.36;100.00
39699;BME280;25372;50.582;12.250;2023-03-01T09:00:55;101036.69;;;-3.00;100.00
39699;BME280;25372;50.582;12.250;2023-03-01T09:11:20;101028.19;;;-2.64;100.00
39699;BME280;25372;50.582;12.250;2023-03-01T09:21:41;101006.06;;;-2.16;100.00
39699;BME280;25372;50.582;12.250;2023-03-01T09:32:13;100995.47;;;-2.11;100.00
39699;BME280;25372;50.582;12.250;2023-03-01T09:42:35;100993.44;;;-1.69;99.53
39699;BME280;25372;50.582;12.250;2023-03-01T09:53:01;100996.66;;;-1.47;95.86
39699;BME280;25372;50.582;12.250;2023-03-01T10:03:25;100987.72;;;-1.08;92.54
39699;BME280;25372;50.582;12.250;2023-03-01T10:13:52;100983.59;;;-0.78;90.60
39699;BME280;25372;50.582;12.250;2023-03-01T10:24:17;100985.03;;;-0.41;89.81
39699;BME280;25372;50.582;12.250;2023-03-01T10:34:42;100976.72;;;0.15;84.82
39699;BME280;25372;50.582;12.250;2023-03-01T10:45:16;100967.78;;;0.19;83.11
39699;BME280;25372;50.582;12.250;2023-03-01T10:55:45;100954.75;;;0.93;81.21
39699;BME280;25372;50.582;12.250;2023-03-01T11:06:20;100934.25;;;0.86;78.39
39699;BME280;25372;50.582;12.250;2023-03-01T11:16:45;100921.72;;;1.48;75.46
39699;BME280;25372;50.582;12.250;2023-03-01T11:27:16;100915.06;;;1.84;74.25
39699;BME280;25372;50.582;12.250;2023-03-01T11:37:44;100905.94;;;2.30;70.16
39699;BME280;25372;50.582;12.250;2023-03-01T11:48:24;100906.66;;;2.70;65.10
39699;BME280;25372;50.582;12.250;2023-03-01T11:59:03;100893.44;;;2.85;64.58
39699;BME280;25372;50.582;12.250;2023-03-01T12:09:40;100876.00;;;2.72;61.38
39699;BME280;25372;50.582;12.250;2023-03-01T12:20:22;100835.16;;;3.07;59.39
39699;BME280;25372;50.582;12.250;2023-03-01T12:30:59;100853.50;;;3.31;55.46
39699;BME280;25372;50.582;12.250;2023-03-01T12:41:50;100842.16;;;3.30;54.89
39699;BME280;25372;50.582;12.250;2023-03-01T12:52:19;100830.03;;;3.29;54.49
39699;BME280;25372;50.582;12.250;2023-03-01T13:02:49;100824.84;;;3.41;57.24
39699;BME280;25372;50.582;12.250;2023-03-01T13:13:18;100818.69;;;3.29;56.37
39699;BME280;25372;50.582;12.250;2023-03-01T13:23:47;100812.81;;;3.38;56.41
39699;BME280;25372;50.582;12.250;2023-03-01T13:45:24;100810.94;;;3.52;52.59
39699;BME280;25372;50.582;12.250;2023-03-01T13:55:47;100808.97;;;3.66;53.84
39699;BME280;25372;50.582;12.250;2023-03-01T14:06:13;100800.75;;;3.71;53.78
39699;BME280;25372;50.582;12.250;2023-03-01T14:16:45;100788.00;;;3.66;52.58
39699;BME280;25372;50.582;12.250;2023-03-01T14:27:12;100776.22;;;3.72;53.25
39699;BME280;25372;50.582;12.250;2023-03-01T14:37:34;100761.69;;;3.79;53.38
39699;BME280;25372;50.582;12.250;2023-03-01T14:47:59;100766.78;;;3.58;53.40
39699;BME280;25372;50.582;12.250;2023-03-01T14:58:22;100745.47;;;3.63;54.30
39699;BME280;25372;50.582;12.250;2023-03-01T15:08:47;100740.72;;;4.13;52.84
39699;BME280;25372;50.582;12.250;2023-03-01T15:19:17;100736.91;;;4.29;53.24
39699;BME280;25372;50.582;12.250;2023-03-01T15:29:40;100737.59;;;3.86;54.79
39699;BME280;25372;50.582;12.250;2023-03-01T15:40:19;100744.41;;;3.30;58.66
39699;BME280;25372;50.582;12.250;2023-03-01T15:50:42;100734.75;;;2.95;59.16
39699;BME280;25372;50.582;12.250;2023-03-01T16:01:11;100725.19;;;2.46;61.43
39699;BME280;25372;50.582;12.250;2023-03-01T16:11:35;100717.22;;;1.97;64.00
39699;BME280;25372;50.582;12.250;2023-03-01T16:21:56;100729.44;;;1.19;67.60
39699;BME280;25372;50.582;12.250;2023-03-01T16:32:18;100744.88;;;0.68;72.20
39699;BME280;25372;50.582;12.250;2023-03-01T16:42:40;100744.91;;;0.12;75.92
39699;BME280;25372;50.582;12.250;2023-03-01T16:53:03;100739.19;;;-0.24;80.21
39699;BME280;25372;50.582;12.250;2023-03-01T17:03:26;100748.59;;;-0.96;87.29
39699;BME280;25372;50.582;12.250;2023-03-01T17:13:49;100745.94;;;-1.74;96.78
39699;BME280;25372;50.582;12.250;2023-03-01T17:24:10;100760.97;;;-1.97;100.00
39699;BME280;25372;50.582;12.250;2023-03-01T17:34:32;100777.91;;;-2.23;100.00
39699;BME280;25372;50.582;12.250;2023-03-01T17:44:53;100784.00;;;-2.77;100.00
39699;BME280;25372;50.582;12.250;2023-03-01T17:55:16;100792.19;;;-2.67;100.00
39699;BME280;25372;50.582;12.250;2023-03-01T18:05:37;100788.22;;;-3.11;100.00
39699;BME280;25372;50.582;12.250;2023-03-01T18:15:59;100782.06;;;-3.08;100.00
39699;BME280;25372;50.582;12.250;2023-03-01T18:26:21;100795.31;;;-3.14;100.00
39699;BME280;25372;50.582;12.250;2023-03-01T18:36:44;100781.78;;;-3.21;100.00
39699;BME280;25372;50.582;12.250;2023-03-01T18:47:05;100788.59;;;-3.38;100.00
39699;BME280;25372;50.582;12.250;2023-03-01T18:57:27;100789.06;;;-3.48;100.00
39699;BME280;25372;50.582;12.250;2023-03-01T19:07:48;100783.34;;;-3.55;100.00
39699;BME280;25372;50.582;12.250;2023-03-01T19:18:10;100790.69;;;-3.46;100.00
39699;BME280;25372;50.582;12.250;2023-03-01T19:28:32;100784.69;;;-3.65;100.00
39699;BME280;25372;50.582;12.250;2023-03-01T19:38:54;100801.06;;;-3.65;100.00
39699;BME280;25372;50.582;12.250;2023-03-01T19:49:15;100772.03;;;-3.73;100.00
39699;BME280;25372;50.582;12.250;2023-03-01T19:59:37;100788.06;;;-3.84;100.00
39699;BME280;25372;50.582;12.250;2023-03-01T20:09:57;100807.31;;;-3.90;100.00
39699;BME280;25372;50.582;12.250;2023-03-01T20:20:19;100798.38;;;-3.82;100.00
39699;BME280;25372;50.582;12.250;2023-03-01T20:30:40;100788.03;;;-4.03;100.00
39699;BME280;25372;50.582;12.250;2023-03-01T20:41:04;100784.00;;;-3.90;100.00
39699;BME280;25372;50.582;12.250;2023-03-01T20:51:25;100771.19;;;-3.93;100.00
39699;BME280;25372;50.582;12.250;2023-03-01T21:01:47;100774.97;;;-4.00;100.00
39699;BME280;25372;50.582;12.250;2023-03-01T21:12:08;100774.06;;;-4.20;100.00
39699;BME280;25372;50.582;12.250;2023-03-01T21:22:30;100756.13;;;-4.24;100.00
39699;BME280;25372;50.582;12.250;2023-03-01T21:32:53;100755.25;;;-4.44;100.00
39699;BME280;25372;50.582;12.250;2023-03-01T21:43:14;100760.47;;;-4.04;100.00
39699;BME280;25372;50.582;12.250;2023-03-01T21:53:35;100754.41;;;-4.44;100.00
39699;BME280;25372;50.582;12.250;2023-03-01T22:03:59;100747.16;;;-4.57;100.00
39699;BME280;25372;50.582;12.250;2023-03-01T22:14:21;100734.97;;;-4.75;100.00
39699;BME280;25372;50.582;12.250;2023-03-01T22:24:43;100735.72;;;-4.71;100.00
39699;BME280;25372;50.582;12.250;2023-03-01T22:35:04;100734.28;;;-4.79;100.00
39699;BME280;25372;50.582;12.250;2023-03-01T22:45:28;100744.97;;;-4.88;100.00
39699;BME280;25372;50.582;12.250;2023-03-01T22:55:50;100737.59;;;-4.97;100.00
39699;BME280;25372;50.582;12.250;2023-03-01T23:06:16;100743.81;;;-5.01;100.00
39699;BME280;25372;50.582;12.250;2023-03-01T23:16:37;100747.69;;;-4.91;100.00
39699;BME280;25372;50.582;12.250;2023-03-01T23:27:00;100740.56;;;-5.29;100.00
39699;BME280;25372;50.582;12.250;2023-03-01T23:37:21;100742.94;;;-5.46;100.00
39699;BME280;25372;50.582;12.250;2023-03-01T23:47:43;100744.25;;;-5.34;100.00
39699;BME280;25372;50.582;12.250;2023-03-01T23:58:04;100744.84;;;-5.28;100.00
